createdAt,value
2022-10-03T00:01:24.721Z,14.10
2022-10-03T00:04:53.956Z,14.23
2022-10-03T00:08:10.536Z,11.77
2022-10-03T00:11:32.381Z,10.73
2022-10-03T00:14:52.964Z,11.47
2022-10-03T00:18:14.271Z,12.13
2022-10-03T00:21:50.259Z,13.97
2022-10-03T00:25:25.887Z,18.13
2022-10-03T00:28:56.574Z,11.13
2022-10-03T00:32:16.123Z,12.37
2022-10-03T00:35:40.814Z,10.40
2022-10-03T00:39:16.104Z,15.00
2022-10-03T00:43:05.230Z,16.43
2022-10-03T00:47:05.530Z,10.43
2022-10-03T00:50:59.110Z,15.30
2022-10-03T00:54:34.822Z,12.50
2022-10-03T00:58:04.518Z,11.83
2022-10-03T01:01:32.259Z,8.33
2022-10-03T01:04:56.936Z,13.17
2022-10-03T01:08:33.692Z,12.10
2022-10-03T01:12:02.859Z,13.93
2022-10-03T01:15:22.282Z,12.57
2022-10-03T01:18:46.520Z,7.33
2022-10-03T01:22:07.773Z,13.33
2022-10-03T01:25:20.415Z,10.60
2022-10-03T01:29:05.894Z,10.63
2022-10-03T01:32:18.668Z,14.83
2022-10-03T01:35:37.391Z,9.67
2022-10-03T01:38:50.601Z,15.70
2022-10-03T01:42:06.519Z,16.50
2022-10-03T01:45:29.253Z,11.03
2022-10-03T01:48:45.624Z,15.50
2022-10-03T01:52:01.522Z,11.80
2022-10-03T01:55:19.892Z,10.23
2022-10-03T01:58:37.397Z,6.00
2022-10-03T02:01:54.843Z,12.13
2022-10-03T02:05:12.823Z,15.80
2022-10-03T02:08:35.112Z,15.90
2022-10-03T02:11:58.385Z,12.80
2022-10-03T02:15:14.476Z,12.80
2022-10-03T02:18:36.170Z,19.27
2022-10-03T02:21:50.325Z,14.13
2022-10-03T02:25:14.308Z,16.13
2022-10-03T02:29:14.687Z,10.80
2022-10-03T02:33:25.659Z,11.90
2022-10-03T02:37:11.958Z,14.20
2022-10-03T02:40:59.077Z,9.63
2022-10-03T02:45:08.880Z,11.47
2022-10-03T02:48:56.158Z,15.03
2022-10-03T02:52:42.751Z,8.67
2022-10-03T02:56:51.411Z,15.80
2022-10-03T03:00:10.231Z,12.10
2022-10-03T03:04:03.772Z,13.77
2022-10-03T03:08:02.623Z,11.50
2022-10-03T03:11:59.377Z,11.67
2022-10-03T03:16:14.223Z,8.83
2022-10-03T03:20:01.026Z,10.27
2022-10-03T03:23:39.351Z,12.97
2022-10-03T03:27:35.499Z,9.83
2022-10-03T03:30:51.835Z,12.13
2022-10-03T03:34:10.745Z,9.17
2022-10-03T03:37:27.758Z,8.00
2022-10-03T03:40:46.501Z,14.87
2022-10-03T03:44:20.611Z,13.70
2022-10-03T03:47:56.134Z,13.43
2022-10-03T03:51:23.176Z,12.67
2022-10-03T03:54:57.817Z,13.23
2022-10-03T03:58:33.339Z,14.70
2022-10-03T04:02:07.051Z,13.07
2022-10-03T04:05:27.967Z,13.00
2022-10-03T04:09:01.418Z,12.80
2022-10-03T04:12:21.714Z,12.23
2022-10-03T04:16:03.104Z,6.33
2022-10-03T04:19:17.786Z,10.33
2022-10-03T04:22:48.471Z,8.50
2022-10-03T04:26:18.206Z,8.60
2022-10-03T04:29:48.119Z,8.53
2022-10-03T04:33:19.331Z,9.57
2022-10-03T04:37:14.311Z,10.43
2022-10-03T04:40:41.244Z,15.20
2022-10-03T04:43:54.182Z,10.67
2022-10-03T04:47:03.185Z,9.00
2022-10-03T04:50:29.726Z,14.47
2022-10-03T04:53:54.796Z,9.87
2022-10-03T04:57:06.413Z,9.60
2022-10-03T05:00:28.385Z,15.77
2022-10-03T05:03:48.870Z,10.17
2022-10-03T05:07:08.394Z,11.60
2022-10-03T05:10:47.176Z,10.47
2022-10-03T05:14:14.262Z,8.83
2022-10-03T05:17:28.536Z,13.07
2022-10-03T05:20:48.787Z,10.83
2022-10-03T05:24:03.986Z,7.87
2022-10-03T05:27:25.176Z,8.13
2022-10-03T05:30:50.105Z,12.10
2022-10-03T05:34:03.751Z,9.07
2022-10-03T05:37:47.725Z,10.90
2022-10-03T05:41:05.631Z,14.10
2022-10-03T05:44:18.831Z,9.53
2022-10-03T05:47:49.277Z,10.90
2022-10-03T05:51:24.456Z,13.83
2022-10-03T05:55:06.982Z,11.07
2022-10-03T05:58:39.805Z,11.03
2022-10-03T06:02:41.105Z,15.63
2022-10-03T06:06:14.172Z,12.53
2022-10-03T06:10:20.834Z,7.10
2022-10-03T06:13:52.209Z,9.50
2022-10-03T06:17:18.978Z,9.53
2022-10-03T06:21:05.776Z,11.77
2022-10-03T06:25:03.945Z,10.80
2022-10-03T06:28:57.556Z,11.23
2022-10-03T06:32:47.671Z,13.50
2022-10-03T06:36:40.902Z,8.43
2022-10-03T06:40:59.963Z,9.00
2022-10-03T06:44:32.312Z,11.17
2022-10-03T06:48:03.248Z,18.00
2022-10-03T06:51:51.626Z,14.87
2022-10-03T06:56:06.948Z,13.17
2022-10-03T06:59:56.415Z,14.00
2022-10-03T07:04:01.816Z,10.07
2022-10-03T07:07:51.289Z,10.63
2022-10-03T07:11:31.104Z,12.83
2022-10-03T07:16:05.134Z,12.37
2022-10-03T07:19:56.626Z,10.33
2022-10-03T07:23:48.431Z,9.83
2022-10-03T07:27:27.892Z,13.30
2022-10-03T07:30:55.713Z,16.17
2022-10-03T07:34:48.027Z,10.57
2022-10-03T07:38:54.146Z,13.40
2022-10-03T07:43:00.195Z,10.03
2022-10-03T07:47:13.295Z,9.43
2022-10-03T07:51:06.934Z,10.70
2022-10-03T07:54:51.903Z,13.03
2022-10-03T07:58:37.808Z,10.57
2022-10-03T08:02:10.823Z,14.20
2022-10-03T08:05:37.274Z,10.30
2022-10-03T08:09:41.268Z,8.90
2022-10-03T08:13:25.610Z,12.57
2022-10-03T08:17:10.411Z,7.67
2022-10-03T08:20:53.140Z,13.87
2022-10-03T08:24:28.354Z,11.13
2022-10-03T08:28:18.446Z,10.77
2022-10-03T08:32:07.341Z,10.67
2022-10-03T08:36:00.172Z,5.67
2022-10-03T08:39:47.718Z,10.70
2022-10-03T08:43:40.687Z,10.07
2022-10-03T08:47:41.406Z,9.87
2022-10-03T08:51:26.307Z,11.27
2022-10-03T08:55:28.996Z,7.90
2022-10-03T08:59:38.832Z,7.03
2022-10-03T09:03:42.585Z,9.23
2022-10-03T09:07:36.027Z,6.17
2022-10-03T09:11:33.776Z,8.43
2022-10-03T09:15:12.129Z,5.70
2022-10-03T09:18:52.176Z,6.57
2022-10-03T09:22:34.884Z,10.43
2022-10-03T09:26:10.086Z,6.87
2022-10-03T09:29:43.492Z,9.77
2022-10-03T09:33:42.583Z,5.33
2022-10-03T09:37:51.712Z,11.23
2022-10-03T09:41:41.083Z,5.33
2022-10-03T09:45:16.190Z,4.93
2022-10-03T09:49:00.609Z,7.97
2022-10-03T09:52:33.050Z,15.63
2022-10-03T09:56:05.872Z,4.47
2022-10-03T09:59:30.370Z,8.57
2022-10-03T10:03:51.798Z,6.37
2022-10-03T10:07:43.258Z,3.97
2022-10-03T10:11:23.842Z,9.03
2022-10-03T10:15:11.334Z,7.63
2022-10-03T10:18:54.325Z,6.07
2022-10-03T10:22:40.567Z,5.03
2022-10-03T10:26:46.177Z,7.73
2022-10-03T10:30:16.501Z,5.87
2022-10-03T10:34:11.899Z,5.97
2022-10-03T10:38:03.824Z,6.27
2022-10-03T10:42:06.751Z,4.83
2022-10-03T10:45:45.753Z,8.10
2022-10-03T10:50:02.914Z,5.77
2022-10-03T10:54:07.363Z,4.87
2022-10-03T10:57:40.611Z,6.67
2022-10-03T11:01:15.835Z,7.57
2022-10-03T11:05:24.714Z,5.73
2022-10-03T11:09:37.378Z,7.00
2022-10-03T11:13:55.987Z,5.43
2022-10-03T11:17:48.524Z,5.13
2022-10-03T11:21:49.892Z,3.87
2022-10-03T11:25:54.156Z,4.10
2022-10-03T11:44:08.170Z,2.43
2022-10-03T11:47:47.046Z,3.57
2022-10-03T11:50:55.438Z,5.43
2022-10-03T11:54:29.874Z,6.20
2022-10-03T11:57:40.869Z,4.17
2022-10-03T12:01:02.036Z,3.00
2022-10-03T12:04:35.385Z,3.00
2022-10-03T12:08:06.711Z,2.67
2022-10-03T12:11:21.120Z,2.70
2022-10-03T12:14:30.375Z,3.20
2022-10-03T12:17:40.820Z,3.20
2022-10-03T12:21:12.809Z,5.40
2022-10-03T12:24:37.805Z,2.87
2022-10-03T12:27:51.494Z,2.47
2022-10-03T12:31:01.799Z,4.10
2022-10-03T12:34:34.333Z,2.33
2022-10-03T12:37:58.883Z,3.93
2022-10-03T12:41:22.582Z,3.07
2022-10-03T12:44:48.233Z,6.87
2022-10-03T12:48:07.605Z,6.53
2022-10-03T12:51:26.799Z,4.20
2022-10-03T12:54:48.310Z,5.43
2022-10-03T12:58:06.605Z,3.90
2022-10-03T13:01:22.415Z,3.27
2022-10-03T13:04:43.185Z,6.20
2022-10-03T13:07:57.769Z,5.13
2022-10-03T13:11:18.448Z,3.87
2022-10-03T13:14:39.276Z,5.60
2022-10-03T13:17:53.916Z,4.20
2022-10-03T13:21:26.882Z,6.40
2022-10-03T13:24:43.676Z,3.23
2022-10-03T13:27:54.077Z,3.40
2022-10-03T13:31:06.399Z,4.63
2022-10-03T13:34:21.267Z,4.20
2022-10-03T13:37:37.047Z,5.23
2022-10-03T13:40:52.778Z,13.17
2022-10-03T13:44:02.828Z,4.10
2022-10-03T13:47:30.430Z,5.17
2022-10-03T13:50:47.146Z,3.93
2022-10-03T13:54:07.754Z,3.73
2022-10-03T13:57:20.893Z,7.77
2022-10-03T14:00:29.196Z,5.53
2022-10-03T14:03:50.931Z,4.37
2022-10-03T14:07:02.687Z,3.27
2022-10-03T14:10:30.075Z,5.37
2022-10-03T14:13:55.290Z,4.80
2022-10-03T14:17:10.238Z,6.60
2022-10-03T14:20:26.855Z,6.00
2022-10-03T14:23:38.851Z,8.40
2022-10-03T14:26:53.009Z,6.17
2022-10-03T14:30:10.017Z,6.27
2022-10-03T14:33:26.356Z,3.80
2022-10-03T14:36:44.118Z,6.53
2022-10-03T14:40:08.709Z,5.10
2022-10-03T14:43:32.453Z,4.70
2022-10-03T14:46:46.435Z,1.33
2022-10-03T14:49:59.115Z,5.73
2022-10-03T14:53:11.012Z,4.27
2022-10-03T14:56:17.608Z,6.37
2022-10-03T14:59:28.991Z,3.37
2022-10-03T15:02:38.979Z,5.63
2022-10-03T15:06:01.713Z,4.40
2022-10-03T15:09:12.672Z,6.37
2022-10-03T15:12:24.212Z,6.93
2022-10-03T15:15:42.818Z,8.67
2022-10-03T15:19:07.046Z,3.43
2022-10-03T15:22:29.436Z,4.10
2022-10-03T15:25:39.846Z,5.10
2022-10-03T15:28:51.209Z,6.13
2022-10-03T15:31:58.926Z,3.97
2022-10-03T15:35:06.499Z,2.93
2022-10-03T15:38:16.867Z,3.37
2022-10-03T15:41:29.927Z,5.73
2022-10-03T15:44:40.113Z,2.47
2022-10-03T15:47:47.654Z,5.90
2022-10-03T15:50:57.123Z,4.07
2022-10-03T15:54:03.137Z,5.20
2022-10-03T15:57:09.322Z,4.93
2022-10-03T16:00:24.664Z,5.37
2022-10-03T16:03:34.390Z,6.80
2022-10-03T16:06:50.764Z,4.70
2022-10-03T16:10:04.435Z,6.17
2022-10-03T16:13:29.024Z,7.47
2022-10-03T16:16:40.953Z,3.67
2022-10-03T16:19:55.118Z,7.57
2022-10-03T16:23:11.350Z,3.63
2022-10-03T16:26:24.863Z,6.40
2022-10-03T16:29:35.067Z,5.17
2022-10-03T16:32:47.198Z,6.83
2022-10-03T16:35:55.886Z,6.97
2022-10-03T16:39:04.768Z,4.00
2022-10-03T16:42:18.843Z,5.37
2022-10-03T16:45:37.915Z,7.97
2022-10-03T16:49:03.051Z,7.77
2022-10-03T16:52:13.602Z,7.00
2022-10-03T16:55:23.744Z,6.20
2022-10-03T16:58:32.288Z,5.33
2022-10-03T17:01:47.030Z,5.43
2022-10-03T17:04:57.112Z,5.43
2022-10-03T17:08:18.154Z,5.87
2022-10-03T17:11:29.840Z,7.87
2022-10-03T17:14:42.070Z,15.33
2022-10-03T17:17:57.347Z,11.67
2022-10-03T17:21:15.008Z,9.70
2022-10-03T17:24:40.304Z,5.80
2022-10-03T17:27:51.004Z,6.93
2022-10-03T17:31:00.646Z,8.30
2022-10-03T17:34:13.910Z,4.20
2022-10-03T17:37:52.315Z,9.43
2022-10-03T17:41:18.764Z,8.13
2022-10-03T17:44:37.806Z,8.27
2022-10-03T17:47:57.350Z,9.17
2022-10-03T17:51:30.471Z,10.73
2022-10-03T17:54:39.170Z,7.60
2022-10-03T17:57:50.333Z,5.97
2022-10-03T18:01:10.130Z,5.43
2022-10-03T18:04:20.415Z,4.83
2022-10-03T18:07:29.547Z,6.87
2022-10-03T18:10:39.095Z,10.43
2022-10-03T18:13:47.205Z,11.30
2022-10-03T18:17:00.318Z,5.77
2022-10-03T18:20:36.025Z,11.23
2022-10-03T18:23:56.369Z,5.67
2022-10-03T18:27:20.254Z,6.00
2022-10-03T18:30:34.637Z,6.93
2022-10-03T18:33:53.179Z,8.57
2022-10-03T18:36:58.192Z,6.00
2022-10-03T18:40:14.495Z,7.20
2022-10-03T18:43:45.351Z,5.20
2022-10-03T18:46:57.841Z,6.57
2022-10-03T18:50:21.854Z,6.90
2022-10-03T18:53:36.842Z,7.77
2022-10-03T18:56:43.282Z,10.03
2022-10-03T18:59:57.334Z,6.90
2022-10-03T19:03:10.116Z,11.03
2022-10-03T19:06:24.991Z,8.43
2022-10-03T19:09:34.340Z,6.87
2022-10-03T19:12:44.314Z,9.40
2022-10-03T19:16:16.828Z,7.43
2022-10-03T19:19:33.206Z,8.63
2022-10-03T19:22:44.546Z,6.80
2022-10-03T19:25:56.934Z,7.23
2022-10-03T19:29:07.483Z,7.00
2022-10-03T19:32:26.954Z,8.20
2022-10-03T19:35:34.032Z,7.70
2022-10-03T19:38:46.117Z,5.87
2022-10-03T19:41:56.328Z,6.67
2022-10-03T19:45:01.528Z,9.43
2022-10-03T19:48:12.742Z,11.40
2022-10-03T19:51:23.897Z,9.77
2022-10-03T19:54:44.127Z,7.07
2022-10-03T19:57:53.804Z,7.83
2022-10-03T20:01:00.056Z,8.57
2022-10-03T20:04:04.090Z,7.40
2022-10-03T20:07:18.027Z,6.77
2022-10-03T20:10:49.194Z,8.70
2022-10-03T20:13:54.668Z,6.67
2022-10-03T20:17:03.514Z,5.83
2022-10-03T20:20:17.208Z,6.03
2022-10-03T20:23:26.324Z,9.70
2022-10-03T20:26:40.765Z,5.60
2022-10-03T20:29:57.369Z,8.23
2022-10-03T20:33:01.590Z,7.77
2022-10-03T20:36:14.969Z,5.57
2022-10-03T20:39:24.350Z,8.50
2022-10-03T20:42:32.954Z,7.80
2022-10-03T20:45:39.073Z,6.97
2022-10-03T20:49:06.107Z,4.30
2022-10-03T20:52:18.562Z,11.93
2022-10-03T20:55:27.922Z,8.37
2022-10-03T20:58:40.775Z,7.30
2022-10-03T21:01:48.201Z,6.23
2022-10-03T21:04:58.919Z,10.70
2022-10-03T21:08:06.455Z,6.53
2022-10-03T21:11:23.240Z,5.57
2022-10-03T21:14:33.310Z,8.57
2022-10-03T21:17:38.772Z,9.53
2022-10-03T21:20:42.768Z,5.67
2022-10-03T21:23:53.601Z,9.67
2022-10-03T21:27:01.552Z,8.30
2022-10-03T21:30:19.621Z,7.33
2022-10-03T21:33:35.480Z,12.20
2022-10-03T21:36:52.362Z,9.57
2022-10-03T21:40:12.356Z,6.33
2022-10-03T21:43:37.623Z,9.13
2022-10-03T21:46:58.539Z,7.33
2022-10-03T21:50:07.652Z,7.43
2022-10-03T21:53:20.538Z,8.40
2022-10-03T21:56:45.762Z,6.57
2022-10-03T22:00:12.220Z,5.80
2022-10-03T22:03:25.004Z,9.00
2022-10-03T22:06:36.616Z,5.83
2022-10-03T22:09:48.800Z,7.03
2022-10-03T22:12:56.614Z,7.10
2022-10-03T22:16:11.197Z,7.83
2022-10-03T22:19:23.125Z,8.00
2022-10-03T22:22:49.005Z,6.40
2022-10-03T22:26:11.967Z,7.83
2022-10-03T22:29:29.453Z,8.90
2022-10-03T22:32:44.423Z,4.73
2022-10-03T22:35:53.667Z,6.47
2022-10-03T22:38:57.571Z,10.37
2022-10-03T22:42:02.308Z,7.20
2022-10-03T22:45:10.991Z,10.67
2022-10-03T22:48:24.753Z,8.23
2022-10-03T22:51:30.514Z,6.97
2022-10-03T22:54:39.280Z,4.80
2022-10-03T22:57:45.538Z,6.90
2022-10-03T23:00:56.188Z,6.60
2022-10-03T23:04:00.550Z,7.10
2022-10-03T23:07:51.118Z,7.93
2022-10-03T23:11:00.848Z,8.37
2022-10-03T23:14:18.760Z,5.20
2022-10-03T23:17:46.752Z,8.77
2022-10-03T23:21:07.922Z,8.03
2022-10-03T23:24:25.299Z,5.00
2022-10-03T23:27:56.661Z,8.30
2022-10-03T23:31:00.374Z,7.13
2022-10-03T23:34:04.005Z,9.97
2022-10-03T23:37:52.697Z,8.53
2022-10-03T23:41:02.018Z,12.03
2022-10-03T23:44:48.891Z,9.33
2022-10-03T23:48:00.995Z,7.43
2022-10-03T23:51:10.257Z,7.23
2022-10-03T23:54:15.413Z,9.50
2022-10-03T23:57:21.486Z,7.57
